Time;durP1;ratioP1;P1;durP2;ratioP2;P2;SDS_P1;SDS_P2;PMS_P1;PMS_P2;Temp;Humidity;BMP_temperature;BMP_pressure;BME280_temperature;BME280_humidity;BME280_pressure;Samples;Min_cycle;Max_cycle;Signal;HPM_P1;HPM_P2
2021/08/03 00:00:08;;;;;;;1.52;0.43;;;19.80;57.50;;;;;;2517663;54;21037;-66
2021/08/03 00:02:35;;;;;;;1.35;0.55;;;19.80;57.50;;;;;;2293355;55;21030;-66
2021/08/03 00:05:03;;;;;;;0.77;0.40;;;19.80;57.50;;;;;;2282749;55;21028;-66
2021/08/03 00:07:29;;;;;;;1.35;0.50;;;19.80;57.50;;;;;;2300899;55;20957;-66
2021/08/03 00:09:56;;;;;;;1.48;0.60;;;19.80;57.50;;;;;;2298832;55;21029;-68
2021/08/03 00:12:22;;;;;;;1.27;0.40;;;19.80;57.50;;;;;;2528896;54;21503;-66
2021/08/03 00:14:50;;;;;;;1.02;0.40;;;19.80;57.50;;;;;;2515425;54;21477;-66
2021/08/03 00:17:21;;;;;;;1.23;0.50;;;19.80;57.50;;;;;;2303599;55;21096;-66
2021/08/03 00:19:47;;;;;;;0.85;0.45;;;19.90;57.60;;;;;;2524255;54;21528;-66
2021/08/03 00:22:14;;;;;;;1.25;0.50;;;19.90;57.60;;;;;;2280389;55;20958;-66
2021/08/03 00:24:43;;;;;;;1.77;0.60;;;19.90;57.80;;;;;;2333939;54;21022;-67
2021/08/03 00:27:09;;;;;;;1.15;0.47;;;19.90;57.60;;;;;;2516675;54;21054;-67
2021/08/03 00:29:36;;;;;;;0.98;0.40;;;20.00;57.70;;;;;;2509805;54;22006;-68
2021/08/03 00:32:06;;;;;;;1.67;0.45;;;20.00;57.70;;;;;;2463787;54;21473;-65
2021/08/03 00:34:37;;;;;;;1.33;0.45;;;20.00;57.70;;;;;;2523850;54;21771;-66
2021/08/03 00:37:06;;;;;;;1.85;0.68;;;20.00;57.70;;;;;;2412398;54;21456;-66
2021/08/03 00:39:33;;;;;;;1.23;0.40;;;20.00;57.50;;;;;;2301889;55;20989;-66
2021/08/03 00:42:00;;;;;;;0.98;0.40;;;20.00;57.50;;;;;;2287050;55;21057;-66
2021/08/03 00:46:18;;;;;;;1.42;0.40;;;20.00;57.50;;;;;;2291535;55;20982;-67
2021/08/03 00:48:45;;;;;;;0.85;0.40;;;20.10;57.40;;;;;;2297430;55;21063;-66
2021/08/03 00:51:13;;;;;;;1.05;0.43;;;20.10;57.40;;;;;;2296359;54;20970;-67
2021/08/03 00:53:43;;;;;;;0.90;0.43;;;20.10;57.40;;;;;;2349443;55;21527;-66
2021/08/03 00:56:10;;;;;;;0.93;0.40;;;20.10;57.40;;;;;;2522049;54;20993;-66
2021/08/03 00:58:40;;;;;;;2.15;0.40;;;20.00;57.30;;;;;;2301023;55;21049;-66
2021/08/03 01:01:15;;;;;;;1.17;0.50;;;20.00;57.30;;;;;;2299524;55;20983;-67
2021/08/03 01:03:42;;;;;;;1.48;0.50;;;20.00;57.30;;;;;;2293828;55;21030;-67
2021/08/03 01:06:34;;;;;;;1.25;0.57;;;20.00;57.30;;;;;;2297625;55;21005;-66
2021/08/03 01:09:02;;;;;;;;;;;20.00;57.30;;;;;;2283540;55;20963;-67
2021/08/03 01:11:59;;;;;;;1.15;0.50;;;20.00;57.20;;;;;;2520674;54;20108;-66
2021/08/03 01:14:32;;;;;;;0.70;0.40;;;20.00;57.20;;;;;;2290764;55;20945;-66
2021/08/03 01:17:13;;;;;;;0.75;0.40;;;20.00;57.40;;;;;;2415071;54;21020;-66
2021/08/03 01:20:11;;;;;;;1.40;0.50;;;20.00;57.40;;;;;;2292712;55;21010;-67
2021/08/03 01:22:58;;;;;;;1.50;0.40;;;20.00;57.50;;;;;;2515163;54;20982;-65
2021/08/03 01:25:52;;;;;;;0.82;0.40;;;20.00;57.60;;;;;;2281644;55;20937;-66
2021/08/03 01:28:23;;;;;;;1.35;0.50;;;20.00;57.40;;;;;;2298201;55;20990;-68
2021/08/03 01:30:54;;;;;;;0.95;0.40;;;20.10;57.60;;;;;;2519751;54;20951;-67
2021/08/03 01:33:23;;;;;;;0.77;0.30;;;20.10;57.50;;;;;;2336330;54;21000;-67
2021/08/03 01:35:50;;;;;;;1.30;0.50;;;20.10;57.50;;;;;;2294317;55;20943;-66
2021/08/03 01:38:20;;;;;;;1.62;0.60;;;20.10;57.50;;;;;;2506449;54;21083;-66
2021/08/03 01:40:46;;;;;;;0.80;0.40;;;20.20;57.60;;;;;;2290876;55;20941;-66
2021/08/03 01:43:15;;;;;;;1.52;0.68;;;20.20;57.50;;;;;;2269554;55;20995;-67
2021/08/03 01:45:41;;;;;;;1.02;0.40;;;20.20;57.40;;;;;;2295614;54;20959;-66
2021/08/03 01:48:08;;;;;;;0.50;0.20;;;20.10;57.40;;;;;;2294487;55;20973;-66
2021/08/03 01:50:34;;;;;;;1.30;0.50;;;20.20;57.40;;;;;;2459834;54;21776;-66
2021/08/03 01:53:02;;;;;;;0.80;0.40;;;20.20;57.40;;;;;;2291449;54;21040;-66
2021/08/03 01:55:29;;;;;;;1.48;0.50;;;20.20;57.40;;;;;;2300505;54;21094;-68
2021/08/03 01:57:55;;;;;;;1.40;0.40;;;20.10;57.40;;;;;;2518027;54;20991;-66
2021/08/03 02:00:22;;;;;;;1.92;0.60;;;20.10;57.30;;;;;;2423356;54;21022;-67
2021/08/03 02:02:48;;;;;;;0.85;0.30;;;20.10;57.30;;;;;;2294757;55;21007;-66
2021/08/03 02:05:17;;;;;;;0.90;0.40;;;20.10;57.30;;;;;;2302683;55;21060;-68
2021/08/03 02:07:44;;;;;;;1.67;0.40;;;20.10;57.30;;;;;;2291792;55;20996;-68
2021/08/03 02:10:14;;;;;;;0.70;0.32;;;20.00;57.20;;;;;;2297145;55;20963;-64
2021/08/03 02:12:43;;;;;;;1.35;0.40;;;20.00;57.30;;;;;;2358706;55;21138;-66
2021/08/03 02:15:10;;;;;;;1.92;0.57;;;20.00;57.30;;;;;;2525871;54;21007;-66
2021/08/03 02:17:38;;;;;;;1.42;0.50;;;19.90;57.20;;;;;;2297044;55;21501;-67
2021/08/03 02:20:06;;;;;;;0.93;0.45;;;19.90;57.20;;;;;;2294128;55;20989;-65
2021/08/03 02:22:33;;;;;;;1.12;0.50;;;19.90;57.30;;;;;;2287704;55;20989;-66
2021/08/03 02:24:59;;;;;;;0.90;0.40;;;19.80;57.20;;;;;;2296838;55;21126;-68
2021/08/03 02:27:27;;;;;;;0.98;0.40;;;19.80;57.40;;;;;;2293454;55;20915;-66
2021/08/03 02:29:53;;;;;;;1.35;0.60;;;19.70;57.30;;;;;;2296129;55;21365;-66
2021/08/03 02:32:27;;;;;;;0.85;0.40;;;19.70;57.40;;;;;;2292436;55;21019;-67
2021/08/03 02:34:58;;;;;;;1.70;0.40;;;19.70;57.50;;;;;;2296085;55;21068;-67
2021/08/03 02:37:32;;;;;;;0.90;0.43;;;19.60;57.40;;;;;;2298004;55;21021;-65
2021/08/03 02:39:59;;;;;;;0.77;0.47;;;19.60;57.50;;;;;;2285034;55;21052;-67
2021/08/03 02:42:25;;;;;;;0.62;0.37;;;19.60;57.50;;;;;;2301007;55;20985;-66
2021/08/03 02:44:56;;;;;;;0.75;0.37;;;19.50;57.50;;;;;;2292012;55;20987;-65
2021/08/03 02:47:27;;;;;;;0.82;0.35;;;19.50;57.50;;;;;;2282105;55;21034;-65
2021/08/03 02:49:53;;;;;;;0.90;0.37;;;19.50;57.60;;;;;;2297898;55;21485;-66
2021/08/03 02:52:22;;;;;;;1.40;0.40;;;19.40;57.50;;;;;;2292020;55;20977;-66
2021/08/03 02:55:38;;;;;;;1.17;0.40;;;19.40;57.50;;;;;;2287613;55;21065;-66
2021/08/03 02:58:07;;;;;;;1.37;0.60;;;19.40;57.70;;;;;;2285610;55;20990;-65
2021/08/03 03:00:35;;;;;;;1.35;0.40;;;19.30;57.60;;;;;;2282286;55;21357;-67
2021/08/03 03:03:03;;;;;;;1.05;0.40;;;19.30;57.60;;;;;;2293477;55;20961;-66
2021/08/03 03:05:30;;;;;;;0.55;0.30;;;19.30;57.70;;;;;;2298808;55;22012;-65
2021/08/03 03:08:04;;;;;;;0.75;0.40;;;19.30;57.80;;;;;;2291817;55;21492;-66
2021/08/03 03:10:31;;;;;;;0.82;0.40;;;19.30;57.80;;;;;;2269627;55;20953;-66
2021/08/03 03:13:02;;;;;;;1.45;0.55;;;19.30;57.80;;;;;;2302226;55;21433;-65
2021/08/03 03:15:29;;;;;;;1.25;0.60;;;19.20;57.80;;;;;;2293516;55;20956;-67
2021/08/03 03:17:55;;;;;;;3.62;0.60;;;19.20;57.90;;;;;;2344018;54;21133;-66
2021/08/03 03:20:21;;;;;;;1.60;0.57;;;19.20;57.90;;;;;;2385842;54;21015;-66
2021/08/03 03:22:48;;;;;;;2.08;0.85;;;19.20;58.00;;;;;;2300738;54;1265123;-66
2021/08/03 03:25:19;;;;;;;1.50;0.60;;;19.10;58.80;;;;;;2305325;55;21046;-67
2021/08/03 03:27:46;;;;;;;1.23;0.52;;;19.10;58.60;;;;;;2295258;55;20987;-66
2021/08/03 03:30:16;;;;;;;1.55;0.70;;;19.10;58.40;;;;;;2294518;55;21434;-65
2021/08/03 03:32:43;;;;;;;1.35;0.50;;;19.20;58.50;;;;;;2294819;55;21051;-67
2021/08/03 03:35:10;;;;;;;1.23;0.50;;;19.10;58.30;;;;;;2278591;55;21816;-66
2021/08/03 03:37:40;;;;;;;0.90;0.45;;;19.10;59.00;;;;;;2507823;54;20970;-66
2021/08/03 03:40:08;;;;;;;1.92;0.88;;;19.10;58.40;;;;;;2293597;55;21015;-65
2021/08/03 03:42:34;;;;;;;1.45;0.60;;;19.10;58.40;;;;;;2299264;54;20987;-68
2021/08/03 03:45:06;;;;;;;1.67;0.50;;;19.10;58.40;;;;;;2298586;54;21067;-66
2021/08/03 03:47:34;;;;;;;1.20;0.37;;;19.10;58.50;;;;;;2291960;55;20989;-67
2021/08/03 03:50:06;;;;;;;1.73;0.60;;;19.10;58.50;;;;;;2299904;55;20969;-67
2021/08/03 03:52:38;;;;;;;1.20;0.50;;;19.10;58.50;;;;;;2262012;55;21015;-67
2021/08/03 03:55:05;;;;;;;1.48;0.50;;;19.10;58.50;;;;;;2282942;55;20968;-67
2021/08/03 03:57:32;;;;;;;2.42;0.50;;;19.00;58.40;;;;;;2295080;55;20981;-66
2021/08/03 03:59:58;;;;;;;1.12;0.50;;;19.00;58.40;;;;;;2285904;55;20976;-66
2021/08/03 04:02:25;;;;;;;1.00;0.37;;;19.00;58.50;;;;;;2292514;55;21017;-66
2021/08/03 04:04:53;;;;;;;1.33;0.50;;;19.00;58.60;;;;;;2299639;55;21097;-67
2021/08/03 04:07:20;;;;;;;1.10;0.50;;;19.00;58.70;;;;;;2295590;55;21024;-64
2021/08/03 04:09:46;;;;;;;1.12;0.55;;;19.00;58.80;;;;;;2354846;54;21547;-66
2021/08/03 04:12:12;;;;;;;1.40;0.60;;;18.90;58.70;;;;;;2527821;54;20964;-67
2021/08/03 04:14:40;;;;;;;0.90;0.40;;;18.90;58.80;;;;;;2298880;55;20970;-68
2021/08/03 04:17:07;;;;;;;1.12;0.45;;;19.00;59.00;;;;;;2292502;55;21468;-64
2021/08/03 04:19:33;;;;;;;1.27;0.50;;;18.90;59.00;;;;;;2292850;55;20967;-67
2021/08/03 04:22:00;;;;;;;2.60;0.70;;;18.90;59.10;;;;;;2304156;55;21124;-66
2021/08/03 04:24:27;;;;;;;2.40;0.52;;;18.90;59.10;;;;;;2282859;55;21143;-67
2021/08/03 04:26:53;;;;;;;1.12;0.50;;;18.90;59.10;;;;;;2520005;54;21727;-66
2021/08/03 04:29:20;;;;;;;1.73;0.50;;;18.90;59.10;;;;;;2279614;55;21007;-66
2021/08/03 04:31:46;;;;;;;3.45;0.70;;;18.90;59.20;;;;;;2290232;55;21075;-67
2021/08/03 04:34:13;;;;;;;2.12;0.60;;;18.90;59.30;;;;;;2301920;55;21122;-67
2021/08/03 04:36:40;;;;;;;1.27;0.50;;;18.90;59.30;;;;;;2389454;54;21082;-66
2021/08/03 04:39:10;;;;;;;1.23;0.60;;;18.90;59.30;;;;;;2296107;55;20969;-66
2021/08/03 04:41:39;;;;;;;1.48;0.65;;;18.80;59.30;;;;;;2290565;55;21130;-67
2021/08/03 04:44:06;;;;;;;2.28;0.80;;;18.80;59.40;;;;;;2283899;55;21945;-66
2021/08/03 04:46:32;;;;;;;1.55;0.70;;;18.80;59.40;;;;;;2279184;55;21031;-65
2021/08/03 04:48:58;;;;;;;1.73;0.70;;;18.80;59.50;;;;;;2282908;55;21057;-65
2021/08/03 04:51:25;;;;;;;1.67;0.77;;;18.90;59.70;;;;;;2279791;55;20987;-66
2021/08/03 04:53:51;;;;;;;3.30;0.85;;;18.90;59.80;;;;;;2282102;55;21796;-66
2021/08/03 04:56:19;;;;;;;1.55;0.77;;;18.90;59.80;;;;;;2292424;55;20949;-64
2021/08/03 04:58:45;;;;;;;1.48;0.55;;;18.90;59.80;;;;;;2295489;55;20967;-66
2021/08/03 05:01:12;;;;;;;2.00;0.70;;;18.90;59.80;;;;;;2291855;55;21414;-66
2021/08/03 05:03:38;;;;;;;1.90;0.80;;;18.90;59.80;;;;;;2297767;55;21006;-66
2021/08/03 05:06:05;;;;;;;1.70;0.80;;;18.90;59.90;;;;;;2295232;55;20989;-67
2021/08/03 05:08:31;;;;;;;1.70;0.75;;;19.00;60.00;;;;;;2295427;55;20985;-67
2021/08/03 05:10:58;;;;;;;2.05;0.90;;;18.90;59.90;;;;;;2377159;54;20973;-65
2021/08/03 05:13:25;;;;;;;2.05;0.82;;;19.00;60.00;;;;;;2302829;54;21014;-65
2021/08/03 05:15:52;;;;;;;1.67;0.70;;;18.90;60.00;;;;;;2318223;55;21576;-67
2021/08/03 05:18:18;;;;;;;1.83;0.75;;;18.90;60.00;;;;;;2282239;55;21063;-66
2021/08/03 05:20:46;;;;;;;2.95;0.90;;;19.00;60.10;;;;;;2286255;55;21801;-66
2021/08/03 05:23:13;;;;;;;3.50;0.85;;;19.00;60.10;;;;;;2298569;55;20988;-67
2021/08/03 05:25:40;;;;;;;2.65;1.02;;;19.00;60.10;;;;;;2296856;55;21490;-65
2021/08/03 05:28:08;;;;;;;1.85;0.88;;;19.00;60.20;;;;;;2296931;55;21023;-66
2021/08/03 05:30:37;;;;;;;2.42;0.77;;;19.00;60.20;;;;;;2295064;55;21473;-65
2021/08/03 05:33:03;;;;;;;1.35;0.62;;;19.00;60.30;;;;;;2295484;55;21070;-66
2021/08/03 05:35:30;;;;;;;1.17;0.52;;;19.00;60.30;;;;;;2298209;55;21070;-66
2021/08/03 05:37:56;;;;;;;2.30;0.70;;;19.10;60.40;;;;;;2282414;55;21050;-67
2021/08/03 05:40:24;;;;;;;1.50;0.60;;;19.10;60.40;;;;;;2291713;55;21820;-66
2021/08/03 05:42:50;;;;;;;1.42;0.60;;;19.10;60.30;;;;;;2288227;55;20965;-65
2021/08/03 05:45:16;;;;;;;1.73;0.60;;;19.00;60.30;;;;;;2283103;55;21058;-66
2021/08/03 05:47:43;;;;;;;1.12;0.50;;;19.10;60.40;;;;;;2281600;55;20964;-66
2021/08/03 05:50:10;;;;;;;0.80;0.50;;;19.20;60.50;;;;;;2283709;55;21073;-67
2021/08/03 05:52:39;;;;;;;1.45;0.57;;;19.20;60.40;;;;;;2294651;55;21091;-66
2021/08/03 05:55:06;;;;;;;2.12;0.73;;;19.20;61.10;;;;;;2281803;55;20965;-67
2021/08/03 05:57:32;;;;;;;1.77;0.70;;;19.20;60.40;;;;;;2292171;55;20977;-66
2021/08/03 06:00:00;;;;;;;1.87;0.60;;;19.30;60.40;;;;;;2287169;55;21052;-66
2021/08/03 06:02:28;;;;;;;1.25;0.55;;;19.30;61.00;;;;;;2286404;55;21742;-65
2021/08/03 06:04:55;;;;;;;1.92;0.60;;;19.30;60.30;;;;;;2297388;55;21664;-66
2021/08/03 06:07:24;;;;;;;1.37;0.50;;;19.40;60.40;;;;;;2295939;55;20978;-66
2021/08/03 06:09:52;;;;;;;3.65;0.80;;;19.40;60.50;;;;;;2291959;55;21029;-65
2021/08/03 06:12:20;;;;;;;1.87;0.60;;;19.40;60.50;;;;;;2301558;55;21012;-67
2021/08/03 06:14:48;;;;;;;1.48;0.70;;;19.50;60.70;;;;;;2415547;54;21063;-66
2021/08/03 06:17:14;;;;;;;1.77;0.75;;;19.50;60.70;;;;;;2297168;55;20989;-66
2021/08/03 06:19:50;;;;;;;2.30;0.50;;;19.50;60.70;;;;;;2297304;55;21040;-66
2021/08/03 06:22:17;;;;;;;2.17;0.68;;;19.60;60.80;;;;;;2293834;55;20982;-67
2021/08/03 06:24:44;;;;;;;2.30;0.70;;;19.60;60.60;;;;;;2295916;55;20986;-66
2021/08/03 06:27:12;;;;;;;1.50;0.60;;;19.60;60.60;;;;;;2300034;55;20978;-67
2021/08/03 06:29:38;;;;;;;1.55;0.60;;;19.60;60.60;;;;;;2519148;54;21022;-66
2021/08/03 06:32:06;;;;;;;1.25;0.62;;;19.70;60.60;;;;;;2295849;55;21899;-67
2021/08/03 06:34:45;;;;;;;1.25;0.60;;;19.70;60.60;;;;;;2304171;54;20996;-65
2021/08/03 06:37:12;;;;;;;1.33;0.60;;;19.70;60.70;;;;;;2293140;55;20954;-66
2021/08/03 06:39:39;;;;;;;1.23;0.50;;;19.80;60.80;;;;;;2295363;55;21040;-68
2021/08/03 06:42:39;;;;;;;2.25;0.68;;;19.80;60.90;;;;;;2295357;55;21836;-66
2021/08/03 06:45:12;;;;;;;1.67;0.60;;;19.90;61.20;;;;;;2288987;54;21113;-66
2021/08/03 06:48:05;;;;;;;2.80;0.50;;;20.00;61.20;;;;;;2333938;54;21017;-66
2021/08/03 06:50:35;;;;;;;1.35;0.50;;;20.00;61.30;;;;;;2289194;55;21071;-66
2021/08/03 06:53:05;;;;;;;1.05;0.43;;;20.10;61.90;;;;;;2295711;55;21101;-66
2021/08/03 06:55:33;;;;;;;1.15;0.50;;;20.10;61.00;;;;;;2293418;54;21028;-67
2021/08/03 06:58:03;;;;;;;2.35;0.80;;;20.20;60.80;;;;;;2288271;55;21864;-66
2021/08/03 07:00:35;;;;;;;2.08;0.70;;;20.20;60.70;;;;;;2297288;55;21013;-67
2021/08/03 07:03:01;;;;;;;1.48;0.60;;;20.30;60.60;;;;;;2299992;55;21049;-66
2021/08/03 07:05:28;;;;;;;1.45;0.70;;;20.30;60.50;;;;;;2295458;55;21089;-66
2021/08/03 07:07:56;;;;;;;1.42;0.55;;;20.30;60.40;;;;;;2287656;55;21446;-65
2021/08/03 07:10:23;;;;;;;2.28;0.88;;;20.30;60.30;;;;;;2294869;55;21013;-68
2021/08/03 07:12:49;;;;;;;1.73;0.60;;;20.40;60.30;;;;;;2505575;54;21025;-66
2021/08/03 07:15:15;;;;;;;3.78;0.77;;;20.40;60.20;;;;;;2294875;55;20974;-66
2021/08/03 07:17:42;;;;;;;4.10;0.75;;;20.40;60.10;;;;;;2290960;55;20974;-68
2021/08/03 07:20:11;;;;;;;0.98;0.52;;;20.40;60.00;;;;;;2516835;54;20969;-66
2021/08/03 07:22:41;;;;;;;2.40;0.90;;;20.40;60.00;;;;;;2378611;54;21121;-68
2021/08/03 07:25:09;;;;;;;1.75;0.82;;;20.40;59.90;;;;;;2283692;55;20968;-66
2021/08/03 07:27:36;;;;;;;2.08;0.73;;;20.40;60.00;;;;;;2297523;55;20943;-66
2021/08/03 07:30:06;;;;;;;2.70;0.80;;;20.40;60.00;;;;;;2298838;55;20993;-66
2021/08/03 07:32:33;;;;;;;2.33;0.90;;;20.40;60.00;;;;;;2299484;55;21065;-66
2021/08/03 07:35:00;;;;;;;2.37;0.80;;;20.40;60.00;;;;;;2292284;55;21430;-66
2021/08/03 07:37:27;;;;;;;2.58;0.90;;;20.40;60.10;;;;;;2522970;54;20967;-66
2021/08/03 07:39:55;;;;;;;2.60;1.00;;;20.40;60.10;;;;;;2297144;55;21053;-66
2021/08/03 07:42:21;;;;;;;2.35;1.00;;;20.50;60.00;;;;;;2298081;54;20963;-66
2021/08/03 07:44:48;;;;;;;2.10;0.98;;;20.40;59.80;;;;;;2303147;55;20963;-66
2021/08/03 07:47:14;;;;;;;3.22;1.10;;;20.40;59.80;;;;;;2281768;55;20963;-65
2021/08/03 07:49:42;;;;;;;2.67;1.10;;;20.40;59.90;;;;;;2292500;55;20958;-67
2021/08/03 07:52:09;;;;;;;2.87;0.85;;;20.40;59.90;;;;;;2300267;54;21841;-66
2021/08/03 07:54:35;;;;;;;2.08;0.93;;;20.30;59.90;;;;;;2287006;55;20976;-67
2021/08/03 07:57:02;;;;;;;2.67;1.12;;;20.30;60.00;;;;;;2488621;54;21759;-66
2021/08/03 07:59:29;;;;;;;3.05;1.10;;;20.30;60.30;;;;;;2283286;55;21001;-66
2021/08/03 08:02:01;;;;;;;4.07;0.93;;;20.30;60.30;;;;;;2286745;55;21155;-66
2021/08/03 08:04:27;;;;;;;2.72;1.10;;;20.30;60.50;;;;;;2294861;55;20955;-66
2021/08/03 08:06:54;;;;;;;2.17;0.80;;;20.20;60.30;;;;;;2293776;55;20971;-67
2021/08/03 08:09:20;;;;;;;2.35;0.88;;;20.20;61.20;;;;;;2282263;55;20960;-66
2021/08/03 08:11:47;;;;;;;2.78;0.90;;;20.20;60.50;;;;;;2525342;54;20939;-66
2021/08/03 08:14:13;;;;;;;5.20;0.95;;;20.20;60.70;;;;;;2300645;55;20931;-66
2021/08/03 08:16:40;;;;;;;2.95;1.20;;;20.20;60.80;;;;;;2517502;54;21061;-68
2021/08/03 08:19:06;;;;;;;3.53;1.00;;;20.20;61.00;;;;;;2293310;55;20958;-66
2021/08/03 08:21:33;;;;;;;2.45;0.90;;;20.20;61.10;;;;;;2394527;54;21006;-67
2021/08/03 08:24:03;;;;;;;2.55;0.90;;;20.20;61.00;;;;;;2290308;55;21853;-68
2021/08/03 08:26:30;;;;;;;2.28;0.85;;;20.20;61.20;;;;;;2521337;54;21002;-65
2021/08/03 08:28:57;;;;;;;1.45;0.65;;;20.20;61.20;;;;;;2290255;55;20965;-66
2021/08/03 08:31:23;;;;;;;2.10;0.75;;;20.20;61.30;;;;;;2294473;55;22019;-66
2021/08/03 08:33:50;;;;;;;1.90;0.80;;;20.20;61.50;;;;;;2476979;54;21011;-67
2021/08/03 08:36:16;;;;;;;2.30;0.73;;;20.30;61.70;;;;;;2298533;55;21003;-66
2021/08/03 08:38:43;;;;;;;1.80;0.90;;;20.20;61.60;;;;;;2296287;55;20978;-66
2021/08/03 08:41:12;;;;;;;2.92;1.30;;;20.20;61.70;;;;;;2518674;54;21745;-66
2021/08/03 08:43:40;;;;;;;3.25;1.40;;;20.30;61.80;;;;;;2518326;54;21082;-68
2021/08/03 08:46:07;;;;;;;2.62;1.10;;;20.30;61.80;;;;;;2431386;55;21890;-66
2021/08/03 08:48:36;;;;;;;1.70;0.77;;;20.30;61.70;;;;;;2294921;55;20986;-66
2021/08/03 08:51:02;;;;;;;2.20;0.90;;;20.40;61.60;;;;;;2501799;54;20956;-66
2021/08/03 08:53:29;;;;;;;1.87;0.80;;;20.40;61.30;;;;;;2373568;54;21695;-66
2021/08/03 08:55:55;;;;;;;1.98;0.95;;;20.40;61.20;;;;;;2331519;54;20945;-68
2021/08/03 08:58:22;;;;;;;2.78;0.77;;;20.40;61.10;;;;;;2493167;54;21020;-68
2021/08/03 09:00:48;;;;;;;2.90;0.80;;;20.40;61.10;;;;;;2521333;54;21744;-68
2021/08/03 09:03:15;;;;;;;2.17;0.90;;;20.40;61.20;;;;;;2280007;55;21056;-67
2021/08/03 09:05:42;;;;;;;4.15;0.95;;;20.40;61.50;;;;;;2504156;54;20978;-69
2021/08/03 09:08:10;;;;;;;2.30;0.77;;;20.30;61.50;;;;;;2519483;54;20967;-68
2021/08/03 09:10:48;;;;;;;1.50;0.60;;;20.30;61.80;;;;;;2520383;54;21018;-68
2021/08/03 09:13:17;;;;;;;2.37;0.80;;;20.30;62.10;;;;;;2280701;55;22021;-69
2021/08/03 09:15:55;;;;;;;2.70;1.00;;;20.30;62.10;;;;;;2516738;54;21001;-66
2021/08/03 09:18:36;;;;;;;1.90;0.93;;;20.40;62.40;;;;;;2329491;55;20975;-67
2021/08/03 09:21:05;;;;;;;1.55;0.80;;;20.40;62.70;;;;;;2476298;54;21057;-66
2021/08/03 09:23:54;;;;;;;1.77;0.70;;;20.40;62.60;;;;;;2296025;55;20978;-68
2021/08/03 09:26:46;;;;;;;1.90;0.80;;;20.40;63.10;;;;;;2493332;55;21015;-68
2021/08/03 09:29:14;;;;;;;2.45;0.70;;;20.50;63.30;;;;;;2286865;55;21013;-66
2021/08/03 09:31:41;;;;;;;2.00;0.90;;;20.50;63.20;;;;;;2290775;55;20957;-69
2021/08/03 09:34:15;;;;;;;1.80;0.60;;;20.60;63.50;;;;;;2296667;55;20992;-67
2021/08/03 09:36:57;;;;;;;2.35;0.95;;;20.60;63.50;;;;;;2289550;55;20978;-68
2021/08/03 09:39:41;;;;;;;3.42;1.10;;;20.70;63.70;;;;;;2297125;55;20993;-67
2021/08/03 09:42:27;;;;;;;2.87;0.90;;;20.80;63.80;;;;;;2507965;54;20928;-68
2021/08/03 09:44:58;;;;;;;2.05;0.80;;;20.90;64.00;;;;;;2298632;55;20993;-68
2021/08/03 09:47:28;;;;;;;2.03;0.75;;;21.00;64.30;;;;;;2465939;54;21094;-68
2021/08/03 09:49:56;;;;;;;2.00;0.85;;;21.10;64.40;;;;;;2289977;55;21835;-67
2021/08/03 09:52:23;;;;;;;1.85;0.77;;;21.20;64.50;;;;;;2526920;54;21323;-68
2021/08/03 09:55:05;;;;;;;1.42;0.68;;;21.30;64.40;;;;;;2518369;54;20962;-67
2021/08/03 09:57:36;;;;;;;1.80;0.70;;;21.40;64.10;;;;;;2516220;54;21693;-67
2021/08/03 10:00:03;;;;;;;1.85;0.70;;;21.60;64.20;;;;;;2281169;55;21024;-66
2021/08/03 10:02:29;;;;;;;1.65;0.60;;;21.70;63.90;;;;;;2506341;54;20991;-67
2021/08/03 10:04:57;;;;;;;1.95;0.75;;;21.60;63.50;;;;;;2292580;55;21040;-66
2021/08/03 10:07:25;;;;;;;1.85;0.82;;;21.80;63.40;;;;;;2449292;54;21067;-66
2021/08/03 10:09:52;;;;;;;2.40;0.90;;;21.90;63.20;;;;;;2300041;55;21047;-66
2021/08/03 10:12:19;;;;;;;2.37;1.02;;;22.00;63.10;;;;;;2528175;53;21034;-68
2021/08/03 10:14:47;;;;;;;1.65;0.70;;;22.00;62.90;;;;;;2290960;55;20970;-66
2021/08/03 10:17:14;;;;;;;1.48;0.65;;;22.10;62.90;;;;;;2298380;55;21186;-66
2021/08/03 10:19:41;;;;;;;2.22;0.70;;;22.10;62.80;;;;;;2295830;55;21000;-68
2021/08/03 10:23:38;;;;;;;1.83;0.88;;;22.10;62.60;;;;;;2521141;54;20957;-67
2021/08/03 10:26:11;;;;;;;2.60;1.02;;;22.20;62.40;;;;;;2287807;55;20952;-66
2021/08/03 10:28:37;;;;;;;;;;;22.20;62.00;;;;;;2525028;54;20974;-67
2021/08/03 10:31:03;;;;;;;2.53;1.10;;;22.10;61.90;;;;;;2514790;54;20332;-67
2021/08/03 10:33:44;;;;;;;2.10;0.95;;;22.10;61.50;;;;;;2298382;55;21995;-67
2021/08/03 10:36:52;;;;;;;1.77;0.90;;;22.10;61.70;;;;;;2294744;55;21460;-66
2021/08/03 10:39:20;;;;;;;2.30;0.90;;;22.00;61.70;;;;;;2299377;55;20975;-69
2021/08/03 10:43:41;;;;;;;2.53;1.05;;;21.90;61.50;;;;;;2291112;55;20994;-67
2021/08/03 10:46:53;;;;;;;2.47;1.00;;;21.90;61.60;;;;;;2525215;54;21572;-69
2021/08/03 10:49:52;;;;;;;2.97;0.98;;;21.80;61.40;;;;;;2274992;55;20985;-67
2021/08/03 10:52:49;;;;;;;2.28;0.90;;;21.70;61.20;;;;;;2359849;54;20995;-66
2021/08/03 10:56:06;;;;;;;2.00;0.70;;;21.60;61.30;;;;;;2296640;55;21041;-67
2021/08/03 10:58:33;;;;;;;1.80;0.80;;;21.50;61.60;;;;;;2514437;54;20981;-67
2021/08/03 11:01:00;;;;;;;1.70;0.80;;;21.50;61.60;;;;;;2293320;55;20953;-67
2021/08/03 11:04:00;;;;;;;1.65;0.77;;;21.40;61.70;;;;;;2517107;54;21089;-66
2021/08/03 11:06:36;;;;;;;2.22;0.80;;;21.40;62.10;;;;;;2280749;55;20956;-69
2021/08/03 11:09:31;;;;;;;2.12;0.75;;;21.30;62.20;;;;;;2387802;54;21045;-69
2021/08/03 11:12:40;;;;;;;1.17;0.70;;;21.30;62.60;;;;;;2297499;55;21027;-67
2021/08/03 11:18:43;;;;;;;1.48;0.60;;;21.30;63.00;;;;;;2517567;54;21805;-68
2021/08/03 11:21:18;;;;;;;2.50;0.80;;;21.40;63.20;;;;;;2438361;54;20982;-66
2021/08/03 11:24:13;;;;;;;2.75;0.90;;;21.50;63.60;;;;;;2314344;55;21006;-67
2021/08/03 11:26:58;;;;;;;1.60;0.60;;;21.60;63.90;;;;;;2295831;55;21039;-71
